createdAt,value
2017-08-31T00:01:56.058Z,83.30
2017-08-31T00:04:23.720Z,83.30
2017-08-31T00:06:51.602Z,83.30
2017-08-31T00:09:19.155Z,83.50
2017-08-31T00:11:48.055Z,83.90
2017-08-31T00:14:15.610Z,84.20
2017-08-31T00:16:43.538Z,84.40
2017-08-31T00:19:11.441Z,84.70
2017-08-31T00:21:39.258Z,84.60
2017-08-31T00:24:06.844Z,84.70
2017-08-31T00:29:32.199Z,85.00
2017-08-31T00:31:59.759Z,84.90
2017-08-31T00:34:27.447Z,84.80
2017-08-31T00:36:55.301Z,85.00
2017-08-31T00:39:23.273Z,85.10
2017-08-31T00:44:43.426Z,85.70
2017-08-31T00:47:11.235Z,85.70
2017-08-31T00:49:38.798Z,86.00
2017-08-31T00:52:06.892Z,85.90
2017-08-31T00:54:35.460Z,86.10
2017-08-31T00:57:03.789Z,86.20
2017-08-31T00:59:31.350Z,86.60
2017-08-31T01:01:59.568Z,86.90
2017-08-31T01:04:27.454Z,87.30
2017-08-31T01:07:06.983Z,87.40
2017-08-31T01:09:35.089Z,88.10
2017-08-31T01:12:04.047Z,88.40
2017-08-31T01:14:31.838Z,89.20
2017-08-31T01:16:59.797Z,89.00
2017-08-31T01:19:27.571Z,88.90
2017-08-31T01:27:21.662Z,88.90
2017-08-31T01:29:49.250Z,89.10
2017-08-31T01:32:16.783Z,89.00
2017-08-31T01:34:44.403Z,88.90
2017-08-31T01:37:12.036Z,88.60
2017-08-31T01:39:39.557Z,88.50
2017-08-31T01:42:07.152Z,88.30
2017-08-31T01:44:34.838Z,88.20
2017-08-31T01:47:02.745Z,88.30
2017-08-31T01:49:30.368Z,88.20
2017-08-31T01:52:04.231Z,88.40
2017-08-31T01:54:32.745Z,88.70
2017-08-31T01:57:02.664Z,88.60
2017-08-31T01:59:45.274Z,89.10
2017-08-31T02:02:12.720Z,89.10
2017-08-31T02:04:40.162Z,89.50
2017-08-31T02:07:07.615Z,89.80
2017-08-31T02:09:35.044Z,90.00
2017-08-31T02:12:02.495Z,90.10
2017-08-31T02:14:29.933Z,90.30
2017-08-31T02:16:57.379Z,90.20
2017-08-31T02:19:24.825Z,90.30
2017-08-31T02:21:52.268Z,90.20
2017-08-31T02:24:19.703Z,90.00
2017-08-31T02:26:47.135Z,90.10
2017-08-31T02:29:14.576Z,90.10
2017-08-31T02:31:42.019Z,89.90
2017-08-31T02:34:09.454Z,90.20
2017-08-31T02:36:36.908Z,90.20
2017-08-31T02:39:04.354Z,90.20
2017-08-31T02:41:31.796Z,90.20
2017-08-31T02:43:59.233Z,90.30
2017-08-31T02:46:26.683Z,90.20
2017-08-31T02:48:54.120Z,90.10
2017-08-31T02:51:21.567Z,90.00
2017-08-31T02:53:49.009Z,89.30
2017-08-31T02:56:16.439Z,88.80
2017-08-31T02:58:43.880Z,88.30
2017-08-31T03:01:11.311Z,88.10
2017-08-31T03:03:38.767Z,87.90
2017-08-31T03:06:06.191Z,87.90
2017-08-31T03:08:33.636Z,87.90
2017-08-31T03:11:01.071Z,87.80
2017-08-31T03:13:28.522Z,88.20
2017-08-31T03:15:55.951Z,88.80
2017-08-31T03:18:23.396Z,89.10
2017-08-31T03:20:50.827Z,89.30
2017-08-31T03:23:18.280Z,89.80
2017-08-31T03:25:45.721Z,90.00
2017-08-31T03:28:13.160Z,90.30
2017-08-31T03:30:40.600Z,90.40
2017-08-31T03:33:08.043Z,90.60
2017-08-31T03:35:35.487Z,90.80
2017-08-31T03:38:02.935Z,90.90
2017-08-31T03:40:30.375Z,91.20
2017-08-31T03:42:57.821Z,91.30
2017-08-31T03:45:25.256Z,91.50
2017-08-31T03:47:52.711Z,91.70
2017-08-31T03:50:20.160Z,91.90
2017-08-31T03:52:47.600Z,92.10
2017-08-31T03:55:15.042Z,92.30
2017-08-31T03:57:42.475Z,92.40
2017-08-31T04:00:09.921Z,92.60
2017-08-31T04:02:37.354Z,92.80
2017-08-31T04:05:04.804Z,92.90
2017-08-31T04:07:32.246Z,92.90
2017-08-31T04:09:59.686Z,93.00
2017-08-31T04:12:27.118Z,93.00
2017-08-31T04:14:54.571Z,93.10
2017-08-31T04:17:22.011Z,93.20
2017-08-31T04:19:49.455Z,93.30
2017-08-31T04:22:16.891Z,93.30
2017-08-31T04:24:44.346Z,93.50
2017-08-31T04:27:11.792Z,93.60
2017-08-31T04:29:39.239Z,93.50
2017-08-31T04:32:06.664Z,93.80
2017-08-31T04:34:34.104Z,93.70
2017-08-31T04:37:01.539Z,93.70
2017-08-31T04:39:28.986Z,93.70
2017-08-31T04:41:56.430Z,93.70
2017-08-31T04:44:23.874Z,93.80
2017-08-31T04:46:51.310Z,93.90
2017-08-31T04:49:18.756Z,93.90
2017-08-31T04:51:46.190Z,93.80
2017-08-31T04:54:13.651Z,93.70
2017-08-31T04:56:41.093Z,93.80
2017-08-31T04:59:08.540Z,93.60
2017-08-31T05:01:35.986Z,93.50
2017-08-31T05:04:03.423Z,93.30
2017-08-31T05:06:30.867Z,93.20
2017-08-31T05:08:58.309Z,93.10
2017-08-31T05:11:25.757Z,93.00
2017-08-31T05:13:53.192Z,92.90
2017-08-31T05:16:20.648Z,92.90
2017-08-31T05:18:48.079Z,92.80
2017-08-31T05:21:15.516Z,93.00
2017-08-31T05:23:42.961Z,92.70
2017-08-31T05:26:10.408Z,92.40
2017-08-31T05:28:37.860Z,92.40
2017-08-31T05:31:05.307Z,92.30
2017-08-31T05:33:32.743Z,92.10
2017-08-31T05:36:00.186Z,91.90
2017-08-31T05:38:27.629Z,91.80
2017-08-31T05:40:55.067Z,91.60
2017-08-31T05:43:22.506Z,91.50
2017-08-31T05:45:49.952Z,91.40
2017-08-31T05:48:17.392Z,91.10
2017-08-31T05:50:44.982Z,90.90
2017-08-31T05:53:12.475Z,90.40
2017-08-31T05:55:40.076Z,90.30
2017-08-31T05:58:07.615Z,90.20
2017-08-31T06:00:35.080Z,89.80
2017-08-31T06:03:02.534Z,89.00
2017-08-31T06:05:30.093Z,89.20
2017-08-31T06:07:57.538Z,88.50
2017-08-31T06:10:25.054Z,88.00
2017-08-31T06:12:52.535Z,87.10
2017-08-31T06:15:20.114Z,86.40
2017-08-31T06:17:47.586Z,86.10
2017-08-31T06:20:15.121Z,84.60
2017-08-31T06:22:42.743Z,81.30
2017-08-31T06:25:10.175Z,78.10
2017-08-31T06:27:37.612Z,73.70
2017-08-31T06:30:06.921Z,69.60
2017-08-31T06:32:34.355Z,65.60
2017-08-31T06:35:01.787Z,64.90
2017-08-31T06:37:29.231Z,63.30
2017-08-31T06:39:56.660Z,61.50
2017-08-31T06:42:24.100Z,60.30
2017-08-31T06:44:52.348Z,59.60
2017-08-31T06:47:19.787Z,59.30
2017-08-31T06:49:47.224Z,58.60
2017-08-31T06:52:14.663Z,59.80
2017-08-31T06:54:42.099Z,59.60
2017-08-31T06:57:09.543Z,59.80
2017-08-31T06:59:36.980Z,59.40
2017-08-31T07:02:04.423Z,58.90
2017-08-31T07:04:31.860Z,58.10
2017-08-31T07:06:59.292Z,58.00
2017-08-31T07:09:26.734Z,57.40
2017-08-31T07:11:54.169Z,57.70
2017-08-31T07:14:21.603Z,56.90
2017-08-31T07:16:49.036Z,57.00
2017-08-31T07:19:16.475Z,55.40
2017-08-31T07:21:43.919Z,54.10
2017-08-31T07:24:11.356Z,53.10
2017-08-31T07:26:38.807Z,54.10
2017-08-31T07:29:06.249Z,54.90
2017-08-31T07:31:33.688Z,53.30
2017-08-31T07:34:01.128Z,54.40
2017-08-31T07:36:28.604Z,54.80
2017-08-31T07:38:56.033Z,55.20
2017-08-31T07:41:23.473Z,54.30
2017-08-31T07:43:56.707Z,53.00
2017-08-31T07:46:24.138Z,50.70
2017-08-31T07:48:52.027Z,50.60
2017-08-31T07:51:19.452Z,50.60
2017-08-31T07:53:46.899Z,50.30
2017-08-31T07:56:14.332Z,49.60
2017-08-31T07:58:41.771Z,49.90
2017-08-31T08:01:09.235Z,48.60
2017-08-31T08:06:10.598Z,48.00
2017-08-31T08:08:38.047Z,46.90
2017-08-31T08:11:05.480Z,46.20
2017-08-31T08:13:32.928Z,45.70
2017-08-31T08:16:00.364Z,44.30
2017-08-31T08:18:27.798Z,45.60
2017-08-31T08:20:55.266Z,46.10
2017-08-31T08:23:22.687Z,45.70
2017-08-31T08:25:50.128Z,47.00
2017-08-31T08:28:17.559Z,47.70
2017-08-31T08:30:45.000Z,49.00
2017-08-31T08:33:12.439Z,49.60
2017-08-31T08:35:39.872Z,50.70
2017-08-31T08:38:07.319Z,51.30
2017-08-31T08:40:34.743Z,51.70
2017-08-31T08:43:02.180Z,51.90
2017-08-31T08:45:29.615Z,52.60
2017-08-31T08:47:57.054Z,54.20
2017-08-31T08:50:24.496Z,54.30
2017-08-31T08:52:51.931Z,54.30
2017-08-31T08:55:19.370Z,54.90
2017-08-31T08:57:46.806Z,54.70
2017-08-31T09:00:14.247Z,55.20
2017-08-31T09:02:41.687Z,55.30
2017-08-31T09:05:09.121Z,55.00
2017-08-31T09:07:36.559Z,55.30
2017-08-31T09:10:03.989Z,55.50
2017-08-31T09:12:31.426Z,54.70
2017-08-31T09:14:58.851Z,55.50
2017-08-31T09:17:26.290Z,55.70
2017-08-31T09:19:53.721Z,55.30
2017-08-31T09:22:21.161Z,55.50
2017-08-31T09:24:48.600Z,56.20
2017-08-31T09:27:16.022Z,57.30
2017-08-31T09:29:43.456Z,57.30
2017-08-31T09:32:10.890Z,58.30
2017-08-31T09:34:38.362Z,59.40
2017-08-31T09:37:05.795Z,59.60
2017-08-31T09:39:33.230Z,59.40
2017-08-31T09:42:00.667Z,60.30
2017-08-31T09:44:28.103Z,61.00
2017-08-31T09:46:55.669Z,61.80
2017-08-31T09:49:23.097Z,63.30
2017-08-31T09:51:50.534Z,63.10
2017-08-31T09:54:17.968Z,62.10
2017-08-31T09:56:45.406Z,61.70
2017-08-31T09:59:12.846Z,59.90
2017-08-31T10:01:40.284Z,57.60
2017-08-31T10:04:07.706Z,57.00
2017-08-31T10:06:35.139Z,57.80
2017-08-31T10:09:02.570Z,60.00
2017-08-31T10:11:29.999Z,61.20
2017-08-31T10:13:57.488Z,62.30
2017-08-31T10:16:24.924Z,62.70
2017-08-31T10:18:53.061Z,63.90
2017-08-31T10:21:20.499Z,65.10
2017-08-31T10:23:48.048Z,65.20
2017-08-31T10:26:15.476Z,66.20
2017-08-31T10:28:42.927Z,65.30
2017-08-31T10:31:10.366Z,65.00
2017-08-31T10:33:37.807Z,64.70
2017-08-31T10:36:05.243Z,65.20
2017-08-31T10:38:32.684Z,65.80
2017-08-31T10:41:00.121Z,65.50
2017-08-31T10:43:27.562Z,65.80
2017-08-31T10:45:55.000Z,65.90
2017-08-31T10:48:22.430Z,65.90
2017-08-31T10:50:49.865Z,66.00
2017-08-31T10:53:17.307Z,66.40
2017-08-31T10:55:44.742Z,66.60
2017-08-31T10:58:12.188Z,68.40
2017-08-31T11:00:39.615Z,69.70
2017-08-31T11:06:09.765Z,71.00
2017-08-31T11:08:37.208Z,71.00
2017-08-31T11:11:04.634Z,71.10
2017-08-31T11:13:32.071Z,71.20
2017-08-31T11:15:59.502Z,70.90
2017-08-31T11:18:26.947Z,69.70
2017-08-31T11:20:54.375Z,69.50
2017-08-31T11:23:21.823Z,70.10
2017-08-31T11:25:49.284Z,71.20
2017-08-31T11:28:16.880Z,72.00
2017-08-31T11:30:44.284Z,72.50
2017-08-31T11:33:11.693Z,72.60
2017-08-31T11:35:39.128Z,72.70
2017-08-31T11:38:06.544Z,72.70
2017-08-31T11:40:33.979Z,73.90
2017-08-31T11:43:01.413Z,75.60
2017-08-31T11:45:28.862Z,76.30
2017-08-31T11:47:56.299Z,78.10
2017-08-31T11:50:23.736Z,79.30
2017-08-31T11:52:51.171Z,80.50
2017-08-31T11:55:18.608Z,81.20
2017-08-31T11:57:46.039Z,82.30
2017-08-31T12:00:13.483Z,84.60
2017-08-31T12:02:40.910Z,86.70
2017-08-31T12:05:08.343Z,85.40
2017-08-31T12:07:35.775Z,85.90
2017-08-31T12:10:03.213Z,88.60
2017-08-31T12:12:30.639Z,86.10
2017-08-31T12:14:58.079Z,84.70
2017-08-31T12:17:25.512Z,84.30
2017-08-31T12:19:52.952Z,81.40
2017-08-31T12:22:20.383Z,81.70
2017-08-31T12:24:47.838Z,81.00
2017-08-31T12:27:15.268Z,79.10
2017-08-31T12:29:42.703Z,78.10
2017-08-31T12:32:10.142Z,79.40
2017-08-31T12:34:37.571Z,78.40
2017-08-31T12:37:05.011Z,79.20
2017-08-31T12:39:32.442Z,79.60
2017-08-31T12:41:59.883Z,80.20
2017-08-31T12:44:27.320Z,79.70
2017-08-31T12:46:54.756Z,79.70
2017-08-31T12:49:22.186Z,78.80
2017-08-31T12:51:49.627Z,78.30
2017-08-31T12:54:17.060Z,77.90
2017-08-31T12:56:44.491Z,77.10
2017-08-31T12:59:11.918Z,76.90
2017-08-31T13:01:39.370Z,76.40
2017-08-31T13:04:06.805Z,76.50
2017-08-31T13:06:34.243Z,77.30
2017-08-31T13:09:01.675Z,77.30
2017-08-31T13:11:29.115Z,77.50
2017-08-31T13:13:56.551Z,77.00
2017-08-31T13:16:25.028Z,77.30
2017-08-31T13:18:52.454Z,77.00
2017-08-31T13:21:19.896Z,78.10
2017-08-31T13:23:47.330Z,78.70
2017-08-31T13:26:14.777Z,78.90
2017-08-31T13:28:42.203Z,79.20
2017-08-31T13:31:09.638Z,79.20
2017-08-31T13:33:37.070Z,79.20
2017-08-31T13:36:04.514Z,79.00
2017-08-31T13:38:31.964Z,79.30
2017-08-31T13:40:59.398Z,80.40
2017-08-31T13:43:26.845Z,81.00
2017-08-31T13:45:54.271Z,82.20
2017-08-31T13:48:21.709Z,82.80
2017-08-31T13:50:49.143Z,82.90
2017-08-31T13:53:16.590Z,83.00
2017-08-31T13:55:44.022Z,83.70
2017-08-31T13:58:11.467Z,84.80
2017-08-31T14:00:38.892Z,84.30
2017-08-31T14:03:06.331Z,85.40
2017-08-31T14:05:33.764Z,85.50
2017-08-31T14:08:01.211Z,85.70
2017-08-31T14:10:28.648Z,84.70
2017-08-31T14:12:56.083Z,87.30
2017-08-31T14:15:23.523Z,87.60
2017-08-31T14:17:50.953Z,88.00
2017-08-31T14:20:18.382Z,86.00
2017-08-31T14:22:45.829Z,86.70
2017-08-31T14:25:13.265Z,87.20
2017-08-31T14:27:40.712Z,87.50
2017-08-31T14:30:08.149Z,86.20
2017-08-31T14:32:35.585Z,86.20
2017-08-31T14:35:03.025Z,86.10
2017-08-31T14:37:30.471Z,86.50
2017-08-31T14:39:57.904Z,86.30
2017-08-31T14:42:25.339Z,86.90
2017-08-31T14:44:52.783Z,86.70
2017-08-31T14:47:20.214Z,87.20
2017-08-31T14:49:47.652Z,87.10
2017-08-31T14:52:15.094Z,86.80
2017-08-31T14:54:42.531Z,86.20
2017-08-31T14:57:09.962Z,87.20
2017-08-31T14:59:37.404Z,87.80
2017-08-31T15:02:04.836Z,88.20
2017-08-31T15:04:32.270Z,89.30
2017-08-31T15:06:59.704Z,89.90
2017-08-31T15:09:27.151Z,90.40
2017-08-31T15:11:54.584Z,90.80
2017-08-31T15:14:22.032Z,90.10
2017-08-31T15:16:49.464Z,91.90
2017-08-31T15:19:16.913Z,92.60
2017-08-31T15:21:44.351Z,92.70
2017-08-31T15:24:11.787Z,93.10
2017-08-31T15:26:39.224Z,93.50
2017-08-31T15:29:06.682Z,93.10
2017-08-31T15:31:34.118Z,93.50
2017-08-31T15:34:01.555Z,93.90
2017-08-31T15:36:28.999Z,93.30
2017-08-31T15:38:56.439Z,93.50
2017-08-31T15:41:23.908Z,93.70
2017-08-31T15:43:51.316Z,93.40
2017-08-31T15:46:18.767Z,93.40
2017-08-31T15:48:46.198Z,93.70
2017-08-31T15:51:13.639Z,94.30
2017-08-31T15:53:41.074Z,94.10
2017-08-31T15:56:08.519Z,93.40
2017-08-31T15:58:35.966Z,93.70
2017-08-31T16:01:03.403Z,94.30
2017-08-31T16:03:30.839Z,94.70
2017-08-31T16:05:58.283Z,94.20
2017-08-31T16:08:25.720Z,93.60
2017-08-31T16:10:53.158Z,94.30
2017-08-31T16:13:20.604Z,93.30
2017-08-31T16:15:48.050Z,93.40
2017-08-31T16:18:15.488Z,93.30
2017-08-31T16:20:42.924Z,92.40
2017-08-31T16:23:10.363Z,92.60
2017-08-31T16:25:37.806Z,92.30
2017-08-31T16:28:05.260Z,92.80
2017-08-31T16:30:32.719Z,93.00
2017-08-31T16:33:00.156Z,93.80
2017-08-31T16:35:27.591Z,94.20
2017-08-31T16:37:55.030Z,93.40
2017-08-31T16:40:22.472Z,93.20
2017-08-31T16:42:49.920Z,93.20
2017-08-31T16:45:17.352Z,93.90
2017-08-31T16:47:44.801Z,94.20
2017-08-31T16:50:12.239Z,95.00
2017-08-31T16:52:39.680Z,96.00
2017-08-31T16:55:07.125Z,96.50
2017-08-31T16:57:34.565Z,94.70
2017-08-31T17:00:01.999Z,94.10
2017-08-31T17:02:29.443Z,94.10
2017-08-31T17:04:56.880Z,94.40
2017-08-31T17:07:24.319Z,93.90
2017-08-31T17:09:51.755Z,94.50
2017-08-31T17:12:19.202Z,95.10
2017-08-31T17:14:46.640Z,95.70
2017-08-31T17:17:14.081Z,95.70
2017-08-31T17:19:41.521Z,95.80
2017-08-31T17:22:08.964Z,96.30
2017-08-31T17:24:36.412Z,96.80
2017-08-31T17:27:03.853Z,96.80
2017-08-31T17:29:31.362Z,97.40
2017-08-31T17:31:58.824Z,97.50
2017-08-31T17:34:26.268Z,97.50
2017-08-31T17:36:53.702Z,97.60
2017-08-31T17:39:21.148Z,97.70
2017-08-31T17:41:48.588Z,97.60
2017-08-31T17:44:16.031Z,97.60
2017-08-31T17:46:43.488Z,97.60
2017-08-31T17:49:10.939Z,97.50
2017-08-31T17:51:38.375Z,97.50
2017-08-31T17:54:05.814Z,97.20
2017-08-31T17:56:33.268Z,96.90
2017-08-31T17:59:00.711Z,97.00
2017-08-31T18:01:28.152Z,96.80
2017-08-31T18:03:55.597Z,96.80
2017-08-31T18:06:23.803Z,97.30
2017-08-31T18:08:51.264Z,97.30
2017-08-31T18:11:18.695Z,97.30
2017-08-31T18:13:46.141Z,97.20
2017-08-31T18:16:13.575Z,97.20
2017-08-31T18:18:41.031Z,97.20
2017-08-31T18:21:08.467Z,97.30
2017-08-31T18:23:35.915Z,97.30
2017-08-31T18:26:03.831Z,97.30
2017-08-31T18:28:31.275Z,97.30
2017-08-31T18:30:58.720Z,97.40
2017-08-31T18:33:26.187Z,97.50
2017-08-31T18:35:53.640Z,97.10
2017-08-31T18:38:21.072Z,97.30
2017-08-31T18:40:48.523Z,97.50
2017-08-31T18:43:15.973Z,97.40
2017-08-31T18:45:43.423Z,97.00
2017-08-31T18:48:10.868Z,97.00
2017-08-31T18:50:38.318Z,97.10
2017-08-31T18:53:05.754Z,95.80
2017-08-31T18:55:33.202Z,95.00
2017-08-31T18:58:00.643Z,94.80
2017-08-31T19:00:28.091Z,95.00
2017-08-31T19:02:55.535Z,95.00
2017-08-31T19:05:22.979Z,94.70
2017-08-31T19:07:50.422Z,95.50
2017-08-31T19:10:17.871Z,95.10
2017-08-31T19:12:45.324Z,95.60
2017-08-31T19:15:12.779Z,95.40
2017-08-31T19:17:40.222Z,95.30
2017-08-31T19:20:07.662Z,95.70
2017-08-31T19:22:35.109Z,95.80
2017-08-31T19:25:02.555Z,95.50
2017-08-31T19:27:29.995Z,95.60
2017-08-31T19:29:57.443Z,95.50
2017-08-31T19:32:24.892Z,95.50
2017-08-31T19:34:52.335Z,95.40
2017-08-31T19:37:19.778Z,95.30
2017-08-31T19:39:47.219Z,95.30
2017-08-31T19:42:14.667Z,95.30
2017-08-31T19:44:42.116Z,95.40
2017-08-31T19:47:09.563Z,95.10
2017-08-31T19:49:36.998Z,95.00
2017-08-31T19:52:04.460Z,95.00
2017-08-31T19:54:31.894Z,95.00
2017-08-31T19:56:59.346Z,94.90
2017-08-31T19:59:26.791Z,95.30
2017-08-31T20:01:54.239Z,95.00
2017-08-31T20:04:21.680Z,95.30
2017-08-31T20:06:49.124Z,95.70
2017-08-31T20:09:16.570Z,96.60
2017-08-31T20:11:44.018Z,96.60
2017-08-31T20:14:11.466Z,96.60
2017-08-31T20:16:38.917Z,96.50
2017-08-31T20:19:06.355Z,96.50
2017-08-31T20:21:33.809Z,96.40
2017-08-31T20:24:01.280Z,95.50
2017-08-31T20:26:29.740Z,94.80
2017-08-31T20:28:57.178Z,94.80
2017-08-31T20:31:24.634Z,95.30
2017-08-31T20:33:52.071Z,94.70
2017-08-31T20:36:19.515Z,95.00
2017-08-31T20:38:46.963Z,95.80
2017-08-31T20:41:14.411Z,96.10
2017-08-31T20:43:41.856Z,95.20
2017-08-31T20:46:09.299Z,95.30
2017-08-31T20:48:36.750Z,95.50
2017-08-31T20:51:04.200Z,95.50
2017-08-31T20:53:31.675Z,95.60
2017-08-31T20:55:59.088Z,95.30
2017-08-31T20:58:26.531Z,95.40
2017-08-31T21:00:53.980Z,95.80
2017-08-31T21:03:21.419Z,95.80
2017-08-31T21:05:48.867Z,95.60
2017-08-31T21:08:16.311Z,96.10
2017-08-31T21:10:43.750Z,96.20
2017-08-31T21:13:11.194Z,96.50
2017-08-31T21:15:38.639Z,96.70
2017-08-31T21:18:06.084Z,96.90
2017-08-31T21:20:33.518Z,96.30
2017-08-31T21:23:00.970Z,96.00
2017-08-31T21:25:28.406Z,96.10
2017-08-31T21:27:55.855Z,95.60
2017-08-31T21:30:23.302Z,96.00
2017-08-31T21:32:50.739Z,96.30
2017-08-31T21:35:18.183Z,96.40
2017-08-31T21:37:45.618Z,96.00
2017-08-31T21:40:13.068Z,95.60
2017-08-31T21:42:40.507Z,95.80
2017-08-31T21:45:07.963Z,95.90
2017-08-31T21:47:35.399Z,95.10
2017-08-31T21:50:02.855Z,95.20
2017-08-31T21:52:30.288Z,95.10
2017-08-31T21:54:57.740Z,95.40
2017-08-31T21:57:25.177Z,95.30
2017-08-31T21:59:52.615Z,95.40
2017-08-31T22:02:20.058Z,95.80
2017-08-31T22:04:47.503Z,95.80
2017-08-31T22:07:14.942Z,96.60
2017-08-31T22:09:42.387Z,96.80
2017-08-31T22:12:09.832Z,97.00
2017-08-31T22:14:37.274Z,97.10
2017-08-31T22:17:04.718Z,96.80
2017-08-31T22:19:32.164Z,96.90
2017-08-31T22:21:59.603Z,97.20
2017-08-31T22:24:27.050Z,97.30
2017-08-31T22:26:54.482Z,97.10
2017-08-31T22:29:21.927Z,97.20
2017-08-31T22:31:49.366Z,97.00
2017-08-31T22:34:16.812Z,97.00
2017-08-31T22:36:44.260Z,97.00
2017-08-31T22:39:11.703Z,97.00
2017-08-31T22:41:39.152Z,97.20
2017-08-31T22:44:06.591Z,97.20
2017-08-31T22:46:34.038Z,97.30
2017-08-31T22:49:01.486Z,97.30
2017-08-31T22:51:28.928Z,97.60
2017-08-31T22:53:56.363Z,97.10
2017-08-31T22:56:23.907Z,96.90
2017-08-31T22:58:51.395Z,96.40
2017-08-31T23:01:19.073Z,96.60
2017-08-31T23:03:46.753Z,97.10
2017-08-31T23:08:55.052Z,97.60
2017-08-31T23:11:33.585Z,97.90
2017-08-31T23:14:12.086Z,98.20
2017-08-31T23:16:39.545Z,98.40
2017-08-31T23:19:08.247Z,99.30
2017-08-31T23:21:35.753Z,99.30
2017-08-31T23:24:03.221Z,99.60
2017-08-31T23:26:30.782Z,99.90
2017-08-31T23:29:01.839Z,99.90
2017-08-31T23:31:29.875Z,99.90
2017-08-31T23:33:57.412Z,99.90
2017-08-31T23:36:24.871Z,99.90
2017-08-31T23:38:52.405Z,99.90
2017-08-31T23:41:19.830Z,99.90
2017-08-31T23:43:47.295Z,99.90
2017-08-31T23:46:14.740Z,99.90
2017-08-31T23:48:42.281Z,99.90
2017-08-31T23:54:11.866Z,99.90
2017-08-31T23:56:39.440Z,99.90
2017-08-31T23:59:07.070Z,99.90
